Terminal Aerodrome Forecast
Issued by NWS

Home | Current Version | Previous Version | Text Only | Print | Product List | Glossary On
Versions: 1 2 3 4 5 6 7 8 9 10 11 12 13 14 15 16
000
FTUS45 KABQ 272339
TAFFMN
TAF
KFMN 272339Z 2800/2824 30014G24KT P6SM BKN060
      TEMPO 2800/2802 30024G34KT
     FM280200 32015KT P6SM BKN080
     FM280500 30008KT P6SM BKN080
     FM281600 30011G21KT P6SM VCSH SCT040 BKN080=

USA.gov is the U.S. government's official web portal to all federal, state and local government web resources and services.